sensor_id;sensor_type;location;lat;lon;timestamp;P1;durP1;ratioP1;P2;durP2;ratioP2
43670;SDS011;29267;50.906;7.248;2022-10-26T00:01:28;4.57;;;1.70;;
43670;SDS011;29267;50.906;7.248;2022-10-26T00:03:54;5.25;;;1.98;;
43670;SDS011;29267;50.906;7.248;2022-10-26T00:06:21;9.20;;;1.20;;
43670;SDS011;29267;50.906;7.248;2022-10-26T00:08:55;6.38;;;1.50;;
43670;SDS011;29267;50.906;7.248;2022-10-26T00:11:21;1.90;;;1.45;;
43670;SDS011;29267;50.906;7.248;2022-10-26T00:13:47;3.90;;;1.35;;
43670;SDS011;29267;50.906;7.248;2022-10-26T00:18:40;3.38;;;1.50;;
43670;SDS011;29267;50.906;7.248;2022-10-26T00:21:07;4.97;;;1.42;;
43670;SDS011;29267;50.906;7.248;2022-10-26T00:23:34;6.50;;;1.80;;
43670;SDS011;29267;50.906;7.248;2022-10-26T00:26:00;7.00;;;1.40;;
43670;SDS011;29267;50.906;7.248;2022-10-26T00:28:26;4.15;;;2.33;;
43670;SDS011;29267;50.906;7.248;2022-10-26T00:30:52;2.97;;;1.60;;
43670;SDS011;29267;50.906;7.248;2022-10-26T00:33:17;4.93;;;1.35;;
43670;SDS011;29267;50.906;7.248;2022-10-26T00:35:45;4.20;;;1.58;;
43670;SDS011;29267;50.906;7.248;2022-10-26T00:38:12;15.00;;;1.95;;
43670;SDS011;29267;50.906;7.248;2022-10-26T00:40:38;4.55;;;1.60;;
43670;SDS011;29267;50.906;7.248;2022-10-26T00:43:14;4.55;;;1.10;;
43670;SDS011;29267;50.906;7.248;2022-10-26T00:45:46;5.38;;;1.70;;
43670;SDS011;29267;50.906;7.248;2022-10-26T00:48:19;2.55;;;1.42;;
43670;SDS011;29267;50.906;7.248;2022-10-26T00:50:48;7.35;;;2.05;;
43670;SDS011;29267;50.906;7.248;2022-10-26T00:53:16;6.57;;;1.92;;
43670;SDS011;29267;50.906;7.248;2022-10-26T00:55:44;6.13;;;2.05;;
43670;SDS011;29267;50.906;7.248;2022-10-26T00:58:26;4.53;;;1.95;;
43670;SDS011;29267;50.906;7.248;2022-10-26T01:00:52;2.80;;;1.90;;
43670;SDS011;29267;50.906;7.248;2022-10-26T01:03:18;6.97;;;1.88;;
43670;SDS011;29267;50.906;7.248;2022-10-26T01:05:46;6.03;;;1.77;;
43670;SDS011;29267;50.906;7.248;2022-10-26T01:08:13;3.13;;;1.95;;
43670;SDS011;29267;50.906;7.248;2022-10-26T01:10:41;3.47;;;1.35;;
43670;SDS011;29267;50.906;7.248;2022-10-26T01:13:07;8.10;;;1.60;;
43670;SDS011;29267;50.906;7.248;2022-10-26T01:24:21;6.20;;;1.38;;
43670;SDS011;29267;50.906;7.248;2022-10-26T01:32:39;7.20;;;1.50;;
43670;SDS011;29267;50.906;7.248;2022-10-26T01:38:13;4.90;;;1.90;;
43670;SDS011;29267;50.906;7.248;2022-10-26T01:40:45;7.70;;;1.67;;
43670;SDS011;29267;50.906;7.248;2022-10-26T01:43:19;5.97;;;1.52;;
43670;SDS011;29267;50.906;7.248;2022-10-26T01:45:46;10.50;;;1.50;;
43670;SDS011;29267;50.906;7.248;2022-10-26T01:48:15;3.58;;;1.48;;
43670;SDS011;29267;50.906;7.248;2022-10-26T01:50:44;3.67;;;1.70;;
43670;SDS011;29267;50.906;7.248;2022-10-26T01:53:13;4.47;;;1.45;;
43670;SDS011;29267;50.906;7.248;2022-10-26T01:55:44;3.22;;;1.50;;
43670;SDS011;29267;50.906;7.248;2022-10-26T01:58:14;9.23;;;2.70;;
43670;SDS011;29267;50.906;7.248;2022-10-26T02:01:10;5.50;;;1.75;;
43670;SDS011;29267;50.906;7.248;2022-10-26T02:03:38;4.07;;;1.23;;
43670;SDS011;29267;50.906;7.248;2022-10-26T02:08:47;6.43;;;1.73;;
43670;SDS011;29267;50.906;7.248;2022-10-26T02:11:30;3.25;;;1.50;;
43670;SDS011;29267;50.906;7.248;2022-10-26T02:14:17;5.78;;;1.70;;
43670;SDS011;29267;50.906;7.248;2022-10-26T02:17:07;2.58;;;1.55;;
43670;SDS011;29267;50.906;7.248;2022-10-26T02:19:51;2.40;;;1.40;;
43670;SDS011;29267;50.906;7.248;2022-10-26T02:22:27;6.72;;;1.50;;
43670;SDS011;29267;50.906;7.248;2022-10-26T02:24:57;3.33;;;1.63;;
43670;SDS011;29267;50.906;7.248;2022-10-26T02:27:25;7.07;;;2.20;;
43670;SDS011;29267;50.906;7.248;2022-10-26T02:29:55;4.28;;;1.63;;
43670;SDS011;29267;50.906;7.248;2022-10-26T02:32:22;7.28;;;2.47;;
43670;SDS011;29267;50.906;7.248;2022-10-26T02:34:51;4.72;;;1.52;;
43670;SDS011;29267;50.906;7.248;2022-10-26T02:37:20;3.83;;;1.48;;
43670;SDS011;29267;50.906;7.248;2022-10-26T02:39:48;5.03;;;1.75;;
43670;SDS011;29267;50.906;7.248;2022-10-26T02:42:15;5.50;;;1.63;;
43670;SDS011;29267;50.906;7.248;2022-10-26T02:45:05;3.55;;;1.80;;
43670;SDS011;29267;50.906;7.248;2022-10-26T02:47:30;5.57;;;1.50;;
43670;SDS011;29267;50.906;7.248;2022-10-26T02:49:57;2.70;;;1.13;;
43670;SDS011;29267;50.906;7.248;2022-10-26T02:55:11;4.05;;;1.42;;
43670;SDS011;29267;50.906;7.248;2022-10-26T02:57:43;3.50;;;1.70;;
43670;SDS011;29267;50.906;7.248;2022-10-26T03:00:14;5.15;;;1.40;;
43670;SDS011;29267;50.906;7.248;2022-10-26T03:02:41;4.38;;;1.70;;
43670;SDS011;29267;50.906;7.248;2022-10-26T03:05:19;5.30;;;1.75;;
43670;SDS011;29267;50.906;7.248;2022-10-26T03:07:52;4.95;;;1.45;;
43670;SDS011;29267;50.906;7.248;2022-10-26T03:10:19;5.55;;;1.80;;
43670;SDS011;29267;50.906;7.248;2022-10-26T03:12:45;2.33;;;1.50;;
43670;SDS011;29267;50.906;7.248;2022-10-26T03:15:11;5.90;;;1.50;;
43670;SDS011;29267;50.906;7.248;2022-10-26T03:17:36;4.88;;;1.48;;
43670;SDS011;29267;50.906;7.248;2022-10-26T03:20:03;2.50;;;1.30;;
43670;SDS011;29267;50.906;7.248;2022-10-26T03:22:29;5.78;;;2.25;;
43670;SDS011;29267;50.906;7.248;2022-10-26T03:24:54;7.05;;;1.58;;
43670;SDS011;29267;50.906;7.248;2022-10-26T03:27:20;5.40;;;1.73;;
43670;SDS011;29267;50.906;7.248;2022-10-26T03:29:45;10.60;;;2.17;;
43670;SDS011;29267;50.906;7.248;2022-10-26T03:32:11;7.88;;;1.73;;
43670;SDS011;29267;50.906;7.248;2022-10-26T03:34:37;7.55;;;1.88;;
43670;SDS011;29267;50.906;7.248;2022-10-26T03:37:02;6.13;;;1.60;;
43670;SDS011;29267;50.906;7.248;2022-10-26T03:39:28;5.55;;;2.10;;
43670;SDS011;29267;50.906;7.248;2022-10-26T03:41:53;4.72;;;1.52;;
43670;SDS011;29267;50.906;7.248;2022-10-26T03:44:20;5.75;;;1.50;;
43670;SDS011;29267;50.906;7.248;2022-10-26T03:46:45;3.80;;;1.70;;
43670;SDS011;29267;50.906;7.248;2022-10-26T03:49:11;7.35;;;1.35;;
43670;SDS011;29267;50.906;7.248;2022-10-26T03:51:37;5.05;;;2.03;;
43670;SDS011;29267;50.906;7.248;2022-10-26T03:54:02;6.03;;;1.52;;
43670;SDS011;29267;50.906;7.248;2022-10-26T03:56:28;6.75;;;1.52;;
43670;SDS011;29267;50.906;7.248;2022-10-26T03:58:54;4.72;;;1.95;;
43670;SDS011;29267;50.906;7.248;2022-10-26T04:01:20;7.05;;;1.50;;
43670;SDS011;29267;50.906;7.248;2022-10-26T04:03:45;11.20;;;2.65;;
43670;SDS011;29267;50.906;7.248;2022-10-26T04:06:11;5.68;;;1.55;;
43670;SDS011;29267;50.906;7.248;2022-10-26T04:08:36;4.70;;;1.83;;
43670;SDS011;29267;50.906;7.248;2022-10-26T04:11:02;8.63;;;1.77;;
43670;SDS011;29267;50.906;7.248;2022-10-26T04:13:28;4.70;;;1.58;;
43670;SDS011;29267;50.906;7.248;2022-10-26T04:15:53;4.45;;;2.20;;
43670;SDS011;29267;50.906;7.248;2022-10-26T04:18:19;2.53;;;1.30;;
43670;SDS011;29267;50.906;7.248;2022-10-26T04:20:44;4.82;;;1.52;;
43670;SDS011;29267;50.906;7.248;2022-10-26T04:23:10;7.03;;;1.50;;
43670;SDS011;29267;50.906;7.248;2022-10-26T04:25:38;3.55;;;1.63;;
43670;SDS011;29267;50.906;7.248;2022-10-26T04:28:04;8.82;;;1.80;;
43670;SDS011;29267;50.906;7.248;2022-10-26T04:30:32;2.33;;;1.60;;
43670;SDS011;29267;50.906;7.248;2022-10-26T04:32:58;4.05;;;1.90;;
43670;SDS011;29267;50.906;7.248;2022-10-26T04:35:24;4.43;;;2.25;;
43670;SDS011;29267;50.906;7.248;2022-10-26T04:37:50;5.07;;;1.67;;
43670;SDS011;29267;50.906;7.248;2022-10-26T04:40:16;5.32;;;1.83;;
43670;SDS011;29267;50.906;7.248;2022-10-26T04:45:11;7.38;;;2.10;;
43670;SDS011;29267;50.906;7.248;2022-10-26T04:47:37;5.55;;;1.60;;
43670;SDS011;29267;50.906;7.248;2022-10-26T04:50:03;5.82;;;1.63;;
43670;SDS011;29267;50.906;7.248;2022-10-26T04:52:30;2.92;;;1.92;;
43670;SDS011;29267;50.906;7.248;2022-10-26T04:54:56;9.30;;;1.58;;
43670;SDS011;29267;50.906;7.248;2022-10-26T04:57:21;7.70;;;1.80;;
43670;SDS011;29267;50.906;7.248;2022-10-26T04:59:47;3.67;;;1.73;;
43670;SDS011;29267;50.906;7.248;2022-10-26T05:02:13;6.93;;;1.50;;
43670;SDS011;29267;50.906;7.248;2022-10-26T05:04:38;6.65;;;1.45;;
43670;SDS011;29267;50.906;7.248;2022-10-26T05:07:04;3.47;;;1.35;;
43670;SDS011;29267;50.906;7.248;2022-10-26T05:09:29;4.88;;;1.92;;
43670;SDS011;29267;50.906;7.248;2022-10-26T05:11:55;7.10;;;1.15;;
43670;SDS011;29267;50.906;7.248;2022-10-26T05:14:20;4.30;;;1.50;;
43670;SDS011;29267;50.906;7.248;2022-10-26T05:16:46;2.65;;;1.52;;
43670;SDS011;29267;50.906;7.248;2022-10-26T05:19:11;6.32;;;1.23;;
43670;SDS011;29267;50.906;7.248;2022-10-26T05:21:37;3.85;;;1.80;;
43670;SDS011;29267;50.906;7.248;2022-10-26T05:24:03;3.08;;;1.10;;
43670;SDS011;29267;50.906;7.248;2022-10-26T05:26:28;1.92;;;1.30;;
43670;SDS011;29267;50.906;7.248;2022-10-26T05:28:54;13.90;;;1.48;;
43670;SDS011;29267;50.906;7.248;2022-10-26T05:31:19;3.85;;;1.70;;
43670;SDS011;29267;50.906;7.248;2022-10-26T05:33:48;4.80;;;1.30;;
43670;SDS011;29267;50.906;7.248;2022-10-26T05:36:15;1.85;;;1.00;;
43670;SDS011;29267;50.906;7.248;2022-10-26T05:38:42;2.97;;;2.15;;
43670;SDS011;29267;50.906;7.248;2022-10-26T05:41:07;5.95;;;1.13;;
43670;SDS011;29267;50.906;7.248;2022-10-26T05:43:33;8.80;;;1.48;;
43670;SDS011;29267;50.906;7.248;2022-10-26T05:45:58;4.22;;;1.15;;
43670;SDS011;29267;50.906;7.248;2022-10-26T05:48:24;1.20;;;0.90;;
43670;SDS011;29267;50.906;7.248;2022-10-26T05:50:49;4.32;;;1.13;;
43670;SDS011;29267;50.906;7.248;2022-10-26T05:53:15;10.05;;;2.22;;
43670;SDS011;29267;50.906;7.248;2022-10-26T05:55:41;2.80;;;1.10;;
43670;SDS011;29267;50.906;7.248;2022-10-26T05:58:08;2.70;;;0.95;;
43670;SDS011;29267;50.906;7.248;2022-10-26T06:00:57;2.33;;;1.13;;
43670;SDS011;29267;50.906;7.248;2022-10-26T06:06:45;3.53;;;1.10;;
43670;SDS011;29267;50.906;7.248;2022-10-26T06:09:14;4.10;;;1.60;;
43670;SDS011;29267;50.906;7.248;2022-10-26T06:11:40;4.32;;;1.52;;
43670;SDS011;29267;50.906;7.248;2022-10-26T06:14:07;1.48;;;1.00;;
43670;SDS011;29267;50.906;7.248;2022-10-26T06:19:42;4.50;;;1.52;;
43670;SDS011;29267;50.906;7.248;2022-10-26T06:25:18;4.57;;;1.50;;
43670;SDS011;29267;50.906;7.248;2022-10-26T06:30:17;4.05;;;1.58;;
43670;SDS011;29267;50.906;7.248;2022-10-26T06:32:44;6.53;;;1.23;;
43670;SDS011;29267;50.906;7.248;2022-10-26T06:35:18;2.42;;;1.70;;
43670;SDS011;29267;50.906;7.248;2022-10-26T06:37:47;2.33;;;1.10;;
43670;SDS011;29267;50.906;7.248;2022-10-26T06:40:14;5.25;;;1.40;;
43670;SDS011;29267;50.906;7.248;2022-10-26T06:42:41;4.30;;;1.30;;
43670;SDS011;29267;50.906;7.248;2022-10-26T06:45:11;4.55;;;1.13;;
43670;SDS011;29267;50.906;7.248;2022-10-26T06:47:51;9.43;;;1.80;;
43670;SDS011;29267;50.906;7.248;2022-10-26T06:50:32;3.00;;;1.20;;
43670;SDS011;29267;50.906;7.248;2022-10-26T06:56:06;7.40;;;1.25;;
43670;SDS011;29267;50.906;7.248;2022-10-26T06:58:35;5.65;;;1.58;;
43670;SDS011;29267;50.906;7.248;2022-10-26T07:01:04;1.92;;;1.30;;
43670;SDS011;29267;50.906;7.248;2022-10-26T07:03:30;3.00;;;1.75;;
43670;SDS011;29267;50.906;7.248;2022-10-26T07:05:55;2.78;;;1.50;;
43670;SDS011;29267;50.906;7.248;2022-10-26T07:08:21;3.72;;;1.17;;
43670;SDS011;29267;50.906;7.248;2022-10-26T07:10:47;4.82;;;1.33;;
43670;SDS011;29267;50.906;7.248;2022-10-26T07:13:12;8.57;;;1.90;;
43670;SDS011;29267;50.906;7.248;2022-10-26T07:15:38;5.15;;;1.65;;
43670;SDS011;29267;50.906;7.248;2022-10-26T07:18:05;3.15;;;1.30;;
43670;SDS011;29267;50.906;7.248;2022-10-26T07:20:34;6.00;;;1.45;;
43670;SDS011;29267;50.906;7.248;2022-10-26T07:23:02;5.40;;;1.63;;
43670;SDS011;29267;50.906;7.248;2022-10-26T07:25:30;3.85;;;1.25;;
43670;SDS011;29267;50.906;7.248;2022-10-26T07:27:57;3.47;;;1.70;;
43670;SDS011;29267;50.906;7.248;2022-10-26T07:30:24;5.22;;;1.50;;
43670;SDS011;29267;50.906;7.248;2022-10-26T07:32:56;3.72;;;1.58;;
43670;SDS011;29267;50.906;7.248;2022-10-26T07:35:23;5.28;;;1.73;;
43670;SDS011;29267;50.906;7.248;2022-10-26T07:37:48;5.13;;;1.83;;
43670;SDS011;29267;50.906;7.248;2022-10-26T07:40:14;4.95;;;1.80;;
43670;SDS011;29267;50.906;7.248;2022-10-26T07:42:40;4.13;;;1.42;;
43670;SDS011;29267;50.906;7.248;2022-10-26T07:45:05;4.13;;;1.35;;
43670;SDS011;29267;50.906;7.248;2022-10-26T07:47:31;4.85;;;1.50;;
43670;SDS011;29267;50.906;7.248;2022-10-26T07:49:57;4.45;;;1.55;;
43670;SDS011;29267;50.906;7.248;2022-10-26T07:52:22;2.60;;;2.15;;
43670;SDS011;29267;50.906;7.248;2022-10-26T07:54:48;2.15;;;1.10;;
43670;SDS011;29267;50.906;7.248;2022-10-26T07:57:15;2.63;;;1.85;;
43670;SDS011;29267;50.906;7.248;2022-10-26T07:59:41;6.65;;;1.55;;
43670;SDS011;29267;50.906;7.248;2022-10-26T08:02:08;3.88;;;1.48;;
43670;SDS011;29267;50.906;7.248;2022-10-26T08:04:33;5.03;;;2.00;;
43670;SDS011;29267;50.906;7.248;2022-10-26T08:06:59;4.85;;;1.40;;
43670;SDS011;29267;50.906;7.248;2022-10-26T08:09:24;5.20;;;1.70;;
43670;SDS011;29267;50.906;7.248;2022-10-26T08:11:50;8.48;;;1.60;;
43670;SDS011;29267;50.906;7.248;2022-10-26T08:14:16;3.20;;;1.48;;
43670;SDS011;29267;50.906;7.248;2022-10-26T08:16:41;4.63;;;1.40;;
43670;SDS011;29267;50.906;7.248;2022-10-26T08:19:07;2.92;;;1.50;;
43670;SDS011;29267;50.906;7.248;2022-10-26T08:21:32;7.60;;;1.80;;
43670;SDS011;29267;50.906;7.248;2022-10-26T08:23:58;7.25;;;2.00;;
43670;SDS011;29267;50.906;7.248;2022-10-26T08:26:23;5.57;;;1.50;;
43670;SDS011;29267;50.906;7.248;2022-10-26T08:28:49;3.30;;;1.55;;
43670;SDS011;29267;50.906;7.248;2022-10-26T08:31:15;9.02;;;2.33;;
43670;SDS011;29267;50.906;7.248;2022-10-26T08:33:40;5.97;;;2.78;;
43670;SDS011;29267;50.906;7.248;2022-10-26T08:36:06;7.47;;;2.53;;
43670;SDS011;29267;50.906;7.248;2022-10-26T08:38:32;5.53;;;1.40;;
43670;SDS011;29267;50.906;7.248;2022-10-26T08:40:58;3.70;;;1.67;;
43670;SDS011;29267;50.906;7.248;2022-10-26T08:43:31;4.18;;;2.00;;
43670;SDS011;29267;50.906;7.248;2022-10-26T08:48:39;4.85;;;1.50;;
43670;SDS011;29267;50.906;7.248;2022-10-26T08:51:12;4.10;;;2.15;;
43670;SDS011;29267;50.906;7.248;2022-10-26T08:53:44;6.03;;;1.60;;
43670;SDS011;29267;50.906;7.248;2022-10-26T08:56:42;8.77;;;1.88;;
43670;SDS011;29267;50.906;7.248;2022-10-26T08:59:30;7.13;;;1.95;;
43670;SDS011;29267;50.906;7.248;2022-10-26T09:02:01;3.78;;;1.70;;
43670;SDS011;29267;50.906;7.248;2022-10-26T09:04:27;10.40;;;1.92;;
43670;SDS011;29267;50.906;7.248;2022-10-26T09:09:42;5.38;;;1.40;;
43670;SDS011;29267;50.906;7.248;2022-10-26T09:18:13;2.95;;;1.45;;
43670;SDS011;29267;50.906;7.248;2022-10-26T09:21:09;7.80;;;1.33;;
43670;SDS011;29267;50.906;7.248;2022-10-26T09:24:20;5.72;;;1.52;;
43670;SDS011;29267;50.906;7.248;2022-10-26T09:27:15;6.85;;;2.00;;
43670;SDS011;29267;50.906;7.248;2022-10-26T09:29:33;3.67;;;1.30;;
43670;SDS011;29267;50.906;7.248;2022-10-26T09:32:04;2.05;;;1.00;;
43670;SDS011;29267;50.906;7.248;2022-10-26T09:35:08;3.65;;;1.50;;
43670;SDS011;29267;50.906;7.248;2022-10-26T09:37:38;6.40;;;1.58;;
43670;SDS011;29267;50.906;7.248;2022-10-26T09:40:18;4.65;;;1.20;;
43670;SDS011;29267;50.906;7.248;2022-10-26T09:42:57;2.95;;;1.08;;
43670;SDS011;29267;50.906;7.248;2022-10-26T09:45:28;2.63;;;1.50;;
43670;SDS011;29267;50.906;7.248;2022-10-26T09:48:10;3.55;;;1.17;;
43670;SDS011;29267;50.906;7.248;2022-10-26T09:50:41;5.93;;;1.35;;
43670;SDS011;29267;50.906;7.248;2022-10-26T09:53:11;5.43;;;1.85;;
43670;SDS011;29267;50.906;7.248;2022-10-26T10:15:54;3.63;;;1.52;;
43670;SDS011;29267;50.906;7.248;2022-10-26T10:18:30;5.53;;;2.30;;
43670;SDS011;29267;50.906;7.248;2022-10-26T10:20:57;6.03;;;2.47;;
43670;SDS011;29267;50.906;7.248;2022-10-26T10:23:28;3.90;;;1.48;;
43670;SDS011;29267;50.906;7.248;2022-10-26T10:26:05;8.00;;;1.88;;
43670;SDS011;29267;50.906;7.248;2022-10-26T10:28:34;6.43;;;1.73;;
43670;SDS011;29267;50.906;7.248;2022-10-26T10:31:05;6.95;;;1.75;;
43670;SDS011;29267;50.906;7.248;2022-10-26T10:33:42;5.63;;;1.58;;
43670;SDS011;29267;50.906;7.248;2022-10-26T10:36:12;5.57;;;1.52;;
43670;SDS011;29267;50.906;7.248;2022-10-26T10:38:47;6.25;;;1.33;;
43670;SDS011;29267;50.906;7.248;2022-10-26T10:41:18;8.57;;;1.52;;
43670;SDS011;29267;50.906;7.248;2022-10-26T10:44:04;4.43;;;1.60;;
43670;SDS011;29267;50.906;7.248;2022-10-26T10:46:43;5.40;;;1.60;;
43670;SDS011;29267;50.906;7.248;2022-10-26T10:49:22;7.00;;;1.42;;
43670;SDS011;29267;50.906;7.248;2022-10-26T10:51:49;3.53;;;1.50;;
43670;SDS011;29267;50.906;7.248;2022-10-26T10:54:23;4.13;;;1.70;;
43670;SDS011;29267;50.906;7.248;2022-10-26T10:57:10;4.07;;;1.77;;
43670;SDS011;29267;50.906;7.248;2022-10-26T11:07:31;8.68;;;2.30;;
43670;SDS011;29267;50.906;7.248;2022-10-26T11:10:03;5.07;;;1.60;;
43670;SDS011;29267;50.906;7.248;2022-10-26T11:12:30;7.93;;;1.77;;
43670;SDS011;29267;50.906;7.248;2022-10-26T11:15:06;3.95;;;1.80;;
43670;SDS011;29267;50.906;7.248;2022-10-26T11:17:41;7.05;;;1.92;;
43670;SDS011;29267;50.906;7.248;2022-10-26T11:20:24;3.55;;;1.30;;
43670;SDS011;29267;50.906;7.248;2022-10-26T11:25:44;5.25;;;1.60;;
43670;SDS011;29267;50.906;7.248;2022-10-26T11:28:21;4.50;;;1.83;;
43670;SDS011;29267;50.906;7.248;2022-10-26T11:33:29;4.57;;;1.40;;
43670;SDS011;29267;50.906;7.248;2022-10-26T11:36:19;4.53;;;1.48;;
43670;SDS011;29267;50.906;7.248;2022-10-26T11:38:51;3.25;;;1.95;;
43670;SDS011;29267;50.906;7.248;2022-10-26T11:41:25;13.48;;;2.45;;
43670;SDS011;29267;50.906;7.248;2022-10-26T11:44:00;2.90;;;1.33;;
43670;SDS011;29267;50.906;7.248;2022-10-26T11:46:38;8.98;;;2.25;;
43670;SDS011;29267;50.906;7.248;2022-10-26T11:52:14;5.68;;;1.10;;
43670;SDS011;29267;50.906;7.248;2022-10-26T11:54:55;4.47;;;1.58;;
43670;SDS011;29267;50.906;7.248;2022-10-26T11:57:24;3.92;;;1.45;;
43670;SDS011;29267;50.906;7.248;2022-10-26T12:00:00;2.40;;;1.30;;
43670;SDS011;29267;50.906;7.248;2022-10-26T12:02:26;5.38;;;1.08;;
43670;SDS011;29267;50.906;7.248;2022-10-26T12:04:53;6.00;;;1.20;;
43670;SDS011;29267;50.906;7.248;2022-10-26T12:07:34;2.97;;;0.93;;
43670;SDS011;29267;50.906;7.248;2022-10-26T12:10:02;2.72;;;0.80;;
43670;SDS011;29267;50.906;7.248;2022-10-26T12:12:34;2.33;;;0.80;;
43670;SDS011;29267;50.906;7.248;2022-10-26T12:18:14;2.63;;;0.80;;
43670;SDS011;29267;50.906;7.248;2022-10-26T12:23:26;4.45;;;0.80;;
43670;SDS011;29267;50.906;7.248;2022-10-26T12:26:18;3.17;;;0.80;;
43670;SDS011;29267;50.906;7.248;2022-10-26T12:28:47;4.32;;;0.80;;
43670;SDS011;29267;50.906;7.248;2022-10-26T12:34:02;3.28;;;1.35;;
43670;SDS011;29267;50.906;7.248;2022-10-26T12:39:31;7.80;;;1.17;;
43670;SDS011;29267;50.906;7.248;2022-10-26T12:47:06;3.67;;;1.05;;
43670;SDS011;29267;50.906;7.248;2022-10-26T12:52:45;2.58;;;1.10;;
43670;SDS011;29267;50.906;7.248;2022-10-26T12:55:36;4.63;;;1.20;;
43670;SDS011;29267;50.906;7.248;2022-10-26T13:01:16;3.40;;;1.10;;
43670;SDS011;29267;50.906;7.248;2022-10-26T13:06:53;3.00;;;1.05;;
43670;SDS011;29267;50.906;7.248;2022-10-26T13:09:43;8.07;;;0.85;;
43670;SDS011;29267;50.906;7.248;2022-10-26T13:12:14;2.47;;;0.75;;
43670;SDS011;29267;50.906;7.248;2022-10-26T13:14:50;4.05;;;0.90;;
43670;SDS011;29267;50.906;7.248;2022-10-26T13:17:25;4.82;;;1.20;;
43670;SDS011;29267;50.906;7.248;2022-10-26T13:20:00;1.45;;;0.70;;
43670;SDS011;29267;50.906;7.248;2022-10-26T13:22:29;5.15;;;0.93;;
43670;SDS011;29267;50.906;7.248;2022-10-26T13:24:57;4.20;;;0.88;;
43670;SDS011;29267;50.906;7.248;2022-10-26T13:32:29;3.30;;;0.90;;
43670;SDS011;29267;50.906;7.248;2022-10-26T13:34:58;3.90;;;0.90;;
43670;SDS011;29267;50.906;7.248;2022-10-26T13:37:26;2.75;;;1.27;;
43670;SDS011;29267;50.906;7.248;2022-10-26T13:39:54;2.83;;;0.90;;
43670;SDS011;29267;50.906;7.248;2022-10-26T13:42:21;5.32;;;0.90;;
43670;SDS011;29267;50.906;7.248;2022-10-26T13:44:54;3.17;;;0.77;;
43670;SDS011;29267;50.906;7.248;2022-10-26T13:47:40;2.35;;;1.02;;
43670;SDS011;29267;50.906;7.248;2022-10-26T13:50:19;1.15;;;0.75;;
43670;SDS011;29267;50.906;7.248;2022-10-26T13:52:52;2.58;;;1.08;;
43670;SDS011;29267;50.906;7.248;2022-10-26T13:58:13;2.47;;;0.57;;
43670;SDS011;29267;50.906;7.248;2022-10-26T14:01:03;2.75;;;0.75;;
43670;SDS011;29267;50.906;7.248;2022-10-26T14:03:45;0.65;;;0.50;;
43670;SDS011;29267;50.906;7.248;2022-10-26T14:08:41;1.75;;;0.82;;
43670;SDS011;29267;50.906;7.248;2022-10-26T14:11:11;6.45;;;1.10;;
43670;SDS011;29267;50.906;7.248;2022-10-26T14:13:39;1.98;;;0.93;;
43670;SDS011;29267;50.906;7.248;2022-10-26T14:16:08;1.50;;;0.63;;
43670;SDS011;29267;50.906;7.248;2022-10-26T14:18:34;1.67;;;0.85;;
43670;SDS011;29267;50.906;7.248;2022-10-26T14:21:05;1.40;;;0.70;;
43670;SDS011;29267;50.906;7.248;2022-10-26T14:23:44;1.52;;;0.50;;
43670;SDS011;29267;50.906;7.248;2022-10-26T14:26:58;4.18;;;0.60;;
43670;SDS011;29267;50.906;7.248;2022-10-26T14:29:18;1.63;;;0.40;;
43670;SDS011;29267;50.906;7.248;2022-10-26T14:31:46;1.05;;;0.57;;
43670;SDS011;29267;50.906;7.248;2022-10-26T14:34:13;1.20;;;0.40;;
43670;SDS011;29267;50.906;7.248;2022-10-26T14:36:53;2.30;;;0.45;;
43670;SDS011;29267;50.906;7.248;2022-10-26T14:39:29;2.38;;;0.60;;
43670;SDS011;29267;50.906;7.248;2022-10-26T14:44:50;1.83;;;0.57;;
43670;SDS011;29267;50.906;7.248;2022-10-26T14:47:19;1.02;;;0.60;;
43670;SDS011;29267;50.906;7.248;2022-10-26T14:49:57;1.48;;;0.50;;
43670;SDS011;29267;50.906;7.248;2022-10-26T14:52:31;2.15;;;0.80;;
43670;SDS011;29267;50.906;7.248;2022-10-26T14:57:36;5.57;;;0.63;;
43670;SDS011;29267;50.906;7.248;2022-10-26T15:02:46;1.13;;;0.68;;
43670;SDS011;29267;50.906;7.248;2022-10-26T15:07:51;2.85;;;0.70;;
43670;SDS011;29267;50.906;7.248;2022-10-26T15:15:52;2.80;;;1.00;;
43670;SDS011;29267;50.906;7.248;2022-10-26T15:20:56;1.65;;;0.57;;
43670;SDS011;29267;50.906;7.248;2022-10-26T15:23:25;1.15;;;0.55;;
43670;SDS011;29267;50.906;7.248;2022-10-26T15:25:53;2.67;;;0.70;;
43670;SDS011;29267;50.906;7.248;2022-10-26T15:28:22;1.58;;;0.98;;
43670;SDS011;29267;50.906;7.248;2022-10-26T15:33:33;5.85;;;1.38;;
43670;SDS011;29267;50.906;7.248;2022-10-26T15:38:43;1.23;;;0.68;;
43670;SDS011;29267;50.906;7.248;2022-10-26T15:43:40;1.50;;;0.60;;
43670;SDS011;29267;50.906;7.248;2022-10-26T15:46:06;3.85;;;0.65;;
43670;SDS011;29267;50.906;7.248;2022-10-26T15:48:31;2.08;;;0.57;;
43670;SDS011;29267;50.906;7.248;2022-10-26T15:50:58;1.75;;;0.93;;
43670;SDS011;29267;50.906;7.248;2022-10-26T15:53:24;4.78;;;0.88;;
43670;SDS011;29267;50.906;7.248;2022-10-26T15:55:55;0.88;;;0.60;;
43670;SDS011;29267;50.906;7.248;2022-10-26T15:58:23;1.23;;;0.70;;
43670;SDS011;29267;50.906;7.248;2022-10-26T16:00:49;2.50;;;1.30;;
43670;SDS011;29267;50.906;7.248;2022-10-26T16:03:16;5.95;;;2.22;;
43670;SDS011;29267;50.906;7.248;2022-10-26T16:05:47;1.90;;;1.48;;
43670;SDS011;29267;50.906;7.248;2022-10-26T16:08:18;2.53;;;1.30;;
43670;SDS011;29267;50.906;7.248;2022-10-26T16:10:44;3.40;;;2.00;;
43670;SDS011;29267;50.906;7.248;2022-10-26T16:13:13;5.47;;;2.00;;
43670;SDS011;29267;50.906;7.248;2022-10-26T16:15:40;2.75;;;2.03;;
43670;SDS011;29267;50.906;7.248;2022-10-26T16:18:06;2.78;;;1.38;;
43670;SDS011;29267;50.906;7.248;2022-10-26T16:20:31;5.25;;;1.38;;
43670;SDS011;29267;50.906;7.248;2022-10-26T16:22:57;7.63;;;1.40;;
43670;SDS011;29267;50.906;7.248;2022-10-26T16:25:25;2.40;;;1.38;;
43670;SDS011;29267;50.906;7.248;2022-10-26T16:27:52;2.90;;;1.35;;
43670;SDS011;29267;50.906;7.248;2022-10-26T16:30:18;3.22;;;1.30;;
43670;SDS011;29267;50.906;7.248;2022-10-26T16:32:45;3.85;;;1.67;;
43670;SDS011;29267;50.906;7.248;2022-10-26T16:35:10;2.95;;;1.63;;
43670;SDS011;29267;50.906;7.248;2022-10-26T16:37:36;2.30;;;1.38;;
43670;SDS011;29267;50.906;7.248;2022-10-26T16:40:03;5.10;;;1.38;;
43670;SDS011;29267;50.906;7.248;2022-10-26T16:42:29;6.30;;;1.40;;
43670;SDS011;29267;50.906;7.248;2022-10-26T16:44:55;1.77;;;1.30;;
43670;SDS011;29267;50.906;7.248;2022-10-26T16:47:21;1.73;;;1.20;;
43670;SDS011;29267;50.906;7.248;2022-10-26T16:49:47;2.55;;;1.23;;
43670;SDS011;29267;50.906;7.248;2022-10-26T16:52:12;3.70;;;1.48;;
43670;SDS011;29267;50.906;7.248;2022-10-26T16:54:38;4.85;;;1.70;;
43670;SDS011;29267;50.906;7.248;2022-10-26T16:57:04;8.18;;;4.55;;
43670;SDS011;29267;50.906;7.248;2022-10-26T16:59:29;8.40;;;5.50;;
43670;SDS011;29267;50.906;7.248;2022-10-26T17:01:55;10.00;;;5.07;;
43670;SDS011;29267;50.906;7.248;2022-10-26T17:04:21;8.68;;;6.25;;
43670;SDS011;29267;50.906;7.248;2022-10-26T17:06:47;9.18;;;5.15;;
43670;SDS011;29267;50.906;7.248;2022-10-26T17:09:13;3.78;;;2.95;;
43670;SDS011;29267;50.906;7.248;2022-10-26T17:11:39;5.30;;;2.65;;
43670;SDS011;29267;50.906;7.248;2022-10-26T17:14:04;7.53;;;2.72;;
43670;SDS011;29267;50.906;7.248;2022-10-26T17:16:30;2.22;;;2.03;;
43670;SDS011;29267;50.906;7.248;2022-10-26T17:18:56;3.78;;;1.45;;
43670;SDS011;29267;50.906;7.248;2022-10-26T17:21:31;3.67;;;1.50;;
43670;SDS011;29267;50.906;7.248;2022-10-26T17:23:58;4.47;;;1.23;;
43670;SDS011;29267;50.906;7.248;2022-10-26T17:26:24;1.27;;;1.13;;
43670;SDS011;29267;50.906;7.248;2022-10-26T17:28:51;3.15;;;1.83;;
43670;SDS011;29267;50.906;7.248;2022-10-26T17:31:17;3.15;;;1.80;;
43670;SDS011;29267;50.906;7.248;2022-10-26T17:33:43;6.05;;;1.70;;
43670;SDS011;29267;50.906;7.248;2022-10-26T17:36:10;5.10;;;1.58;;
43670;SDS011;29267;50.906;7.248;2022-10-26T17:38:38;6.43;;;1.67;;